Time,TemperatureF,DewpointF,PressureIn,WindDirection,WindDirectionDegrees,WindSpeedMPH,WindSpeedGustMPH,Humidity,HourlyPrecipIn,Conditions,Clouds,dailyrainin,SoftwareType,DateUTC
2013-07-10 00:01:00,71.0,71.0,-100.00,ESE,120,2.0,2.0,98,0.00,,,-99.99,,2013-07-10 04:01:00,
2013-07-10 00:43:00,71.0,71.0,-100.00,SE,125,2.0,3.0,97,0.00,,,-99.99,,2013-07-10 04:43:00,
2013-07-10 01:02:00,71.0,71.0,-100.00,ESE,110,0.0,2.0,97,0.00,,,-99.99,,2013-07-10 05:02:00,
2013-07-10 01:22:00,71.0,71.0,-100.00,SSE,150,1.0,2.0,97,0.00,,,-99.99,,2013-07-10 05:22:00,
2013-07-10 01:52:00,71.0,71.0,-100.00,SE,125,0.0,1.0,97,0.00,,,-99.99,,2013-07-10 05:52:00,
2013-07-10 02:01:00,71.0,71.0,-100.00,ESE,120,0.0,1.0,98,0.00,,,-99.99,,2013-07-10 06:01:00,
2013-07-10 02:22:00,71.0,71.0,-100.00,South,180,1.0,1.0,98,1.10,,,-99.99,,2013-07-10 06:22:00,
2013-07-10 02:32:00,71.0,71.0,-100.00,West,260,0.0,0.0,98,1.10,,,-99.99,,2013-07-10 06:32:00,
2013-07-10 02:42:00,71.0,71.0,-100.00,ESE,105,2.0,3.0,98,0.00,,,-99.99,,2013-07-10 06:42:00,
2013-07-10 02:52:00,71.0,71.0,-100.00,SE,145,2.0,4.0,98,0.00,,,-99.99,,2013-07-10 06:52:00,
2013-07-10 03:01:00,72.0,71.0,-100.00,SE,130,1.0,3.0,97,0.00,,,-99.99,,2013-07-10 07:01:00,
2013-07-10 03:12:00,72.0,71.0,-100.00,SE,140,1.0,2.0,97,0.00,,,-99.99,,2013-07-10 07:12:00,
2013-07-10 03:22:00,72.0,71.0,-100.00,SSW,210,1.0,3.0,97,0.00,,,-99.99,,2013-07-10 07:22:00,
2013-07-10 03:33:00,72.0,71.0,-100.00,SSW,200,3.0,5.0,96,0.00,,,-99.99,,2013-07-10 07:33:00,
2013-07-10 03:43:00,72.0,71.0,-100.00,SSE,165,2.0,6.0,96,0.00,,,-99.99,,2013-07-10 07:43:00,
2013-07-10 03:53:00,72.0,71.0,-100.00,South,190,4.0,6.0,95,0.00,,,-99.99,,2013-07-10 07:53:00,
2013-07-10 04:01:00,72.0,71.0,-100.00,SSW,200,4.0,7.0,96,0.00,,,-99.99,,2013-07-10 08:01:00,
2013-07-10 04:11:00,72.0,71.0,-100.00,SSW,210,4.0,7.0,95,0.00,,,-99.99,,2013-07-10 08:11:00,
2013-07-10 04:33:00,72.0,71.0,-100.00,SW,215,4.0,6.0,96,0.00,,,-99.99,,2013-07-10 08:33:00,
2013-07-10 04:42:00,72.0,71.0,-100.00,SW,230,3.0,6.0,96,0.00,,,-99.99,,2013-07-10 08:42:00,
2013-07-10 04:53:00,72.0,71.0,-100.00,SW,230,3.0,6.0,96,0.00,,,-99.99,,2013-07-10 08:53:00,
2013-07-10 05:02:00,72.0,71.0,-100.00,SSW,205,3.0,6.0,96,0.00,,,-99.99,,2013-07-10 09:02:00,
2013-07-10 05:22:00,72.0,71.0,-100.00,SW,230,2.0,5.0,96,0.00,,,-99.99,,2013-07-10 09:22:00,
2013-07-10 05:32:00,72.0,71.0,-100.00,SSW,210,4.0,6.0,97,0.00,,,-99.99,,2013-07-10 09:32:00,
2013-07-10 05:42:00,73.0,72.0,-100.00,SW,220,4.0,7.0,96,0.00,,,-99.99,,2013-07-10 09:42:00,
2013-07-10 06:01:00,73.0,72.0,-100.00,SW,225,6.0,8.0,97,0.00,,,-99.99,,2013-07-10 10:01:00,
2013-07-10 06:50:00,-999.0,-99.9,-100.00,WSW,240,6.0,9.0,-999,-99.99,,,-99.99,,2013-07-10 10:50:00,
2013-07-10 07:00:00,-999.0,-99.9,-100.00,WSW,240,4.0,11.0,-999,-99.99,,,-99.99,,2013-07-10 11:00:00,
2013-07-10 07:43:00,74.0,73.0,-100.00,SW,220,5.0,8.0,93,0.00,,,-99.99,,2013-07-10 11:43:00,
2013-07-10 08:02:00,75.0,73.0,-100.00,WSW,240,4.0,7.0,93,0.00,,,-99.99,,2013-07-10 12:02:00,
2013-07-10 08:11:00,75.0,73.0,-100.00,SW,220,6.0,8.0,92,0.00,,,-99.99,,2013-07-10 12:11:00,
2013-07-10 08:43:00,76.0,73.0,-100.00,WSW,250,6.0,9.0,90,0.00,,,-99.99,,2013-07-10 12:43:00,
2013-07-10 09:43:00,78.0,74.0,-100.00,SW,235,9.0,13.0,85,0.00,,,-99.99,,2013-07-10 13:43:00,
2013-07-10 10:01:00,80.0,74.0,-100.00,SW,225,9.0,12.0,82,0.00,,,-99.99,,2013-07-10 14:01:00,
2013-07-10 10:22:00,80.0,74.0,-100.00,SW,235,7.0,12.0,82,0.00,,,-99.99,,2013-07-10 14:22:00,
2013-07-10 10:33:00,81.0,74.0,-100.00,SW,215,6.0,12.0,79,0.00,,,-99.99,,2013-07-10 14:33:00,
2013-07-10 10:43:00,82.0,74.0,-100.00,SW,230,9.0,12.0,77,0.00,,,-99.99,,2013-07-10 14:43:00,
2013-07-10 11:22:00,83.0,76.0,-100.00,SW,235,9.0,14.0,80,0.00,,,-99.99,,2013-07-10 15:22:00,
2013-07-10 11:34:00,83.0,76.0,-100.00,WSW,240,10.0,12.0,78,0.00,,,-99.99,,2013-07-10 15:34:00,
2013-07-10 12:11:00,83.0,75.0,-100.00,SW,230,9.0,14.0,76,0.00,,,-99.99,,2013-07-10 16:11:00,
2013-07-10 12:33:00,85.0,76.0,-100.00,SW,215,11.0,16.0,74,0.00,,,-99.99,,2013-07-10 16:33:00,
2013-07-10 12:44:00,86.0,76.0,-100.00,SW,230,12.0,14.0,72,0.00,,,-99.99,,2013-07-10 16:44:00,
2013-07-10 13:02:00,86.0,76.0,-100.00,SW,230,7.0,18.0,73,0.00,,,-99.99,,2013-07-10 17:02:00,
2013-07-10 13:32:00,87.0,77.0,-100.00,WSW,250,7.0,17.0,72,0.00,,,-99.99,,2013-07-10 17:32:00,
2013-07-10 14:02:00,88.0,76.0,-100.00,WSW,240,12.0,16.0,69,0.00,,,-99.99,,2013-07-10 18:02:00,
2013-07-10 14:22:00,87.0,77.0,-100.00,SSW,210,11.0,17.0,70,0.00,,,-99.99,,2013-07-10 18:22:00,
2013-07-10 14:32:00,87.0,77.0,-100.00,SSW,210,11.0,17.0,70,0.00,,,-99.99,,2013-07-10 18:32:00,
2013-07-10 14:44:00,87.0,75.0,-100.00,SW,230,13.0,22.0,68,0.00,,,-99.99,,2013-07-10 18:44:00,
2013-07-10 15:32:00,88.0,76.0,-100.00,SW,225,9.0,22.0,68,0.00,,,-99.99,,2013-07-10 19:32:00,
2013-07-10 15:42:00,87.0,76.0,-100.00,SW,235,11.0,20.0,68,0.00,,,-99.99,,2013-07-10 19:42:00,
2013-07-10 15:52:00,87.0,76.0,-100.00,SW,235,11.0,20.0,68,0.00,,,-99.99,,2013-07-10 19:52:00,
2013-07-10 16:43:00,86.0,75.0,-100.00,SW,230,12.0,19.0,70,0.00,,,-99.99,,2013-07-10 20:43:00,
2013-07-10 17:01:00,85.0,76.0,-100.00,West,260,6.0,12.0,73,0.00,,,-99.99,,2013-07-10 21:01:00,
2013-07-10 18:01:00,68.0,65.0,-100.00,NNE,20,2.0,6.0,90,0.00,,,-99.99,,2013-07-10 22:01:00,
2013-07-10 18:33:00,68.0,66.0,-100.00,East,85,6.0,8.0,92,0.55,,,-99.99,,2013-07-10 22:33:00,
2013-07-10 18:43:00,68.0,66.0,-100.00,East,95,4.0,9.0,93,0.55,,,-99.99,,2013-07-10 22:43:00,
2013-07-10 18:53:00,68.0,66.0,-100.00,East,95,3.0,6.0,93,0.55,,,-99.99,,2013-07-10 22:53:00,
2013-07-10 19:01:00,68.0,66.0,-100.00,NW,320,4.0,6.0,93,0.00,,,-99.99,,2013-07-10 23:01:00,
2013-07-10 19:11:00,68.0,67.0,-100.00,NE,55,2.0,3.0,94,0.00,,,-99.99,,2013-07-10 23:11:00,
2013-07-10 19:32:00,68.0,66.0,-100.00,ESE,105,4.0,6.0,94,0.00,,,-99.99,,2013-07-10 23:32:00,
2013-07-10 19:43:00,68.0,66.0,-100.00,ESE,105,4.0,6.0,94,0.00,,,-99.99,,2013-07-10 23:43:00,
2013-07-10 19:52:00,68.0,66.0,-100.00,SE,125,5.0,10.0,93,0.00,,,-99.99,,2013-07-10 23:52:00,
2013-07-10 20:01:00,68.0,66.0,-100.00,SE,135,4.0,9.0,93,0.00,,,-99.99,,2013-07-11 00:01:00,
2013-07-10 20:11:00,68.0,65.0,-100.00,SE,135,4.0,7.0,92,0.00,,,-99.99,,2013-07-11 00:11:00,
2013-07-10 20:22:00,67.0,65.0,-100.00,South,170,4.0,7.0,93,0.00,,,-99.99,,2013-07-11 00:22:00,
2013-07-10 20:32:00,68.0,65.0,-100.00,East,90,1.0,6.0,92,0.00,,,-99.99,,2013-07-11 00:32:00,
2013-07-10 20:42:00,68.0,65.0,-100.00,ESE,120,2.0,5.0,91,0.00,,,-99.99,,2013-07-11 00:42:00,
2013-07-10 21:01:00,68.0,65.0,-100.00,ESE,115,3.0,4.0,91,0.00,,,-99.99,,2013-07-11 01:01:00,
2013-07-10 21:11:00,68.0,66.0,-100.00,SSW,195,1.0,6.0,92,0.00,,,-99.99,,2013-07-11 01:11:00,
2013-07-10 21:22:00,68.0,65.0,-100.00,ESE,120,2.0,6.0,92,0.00,,,-99.99,,2013-07-11 01:22:00,
2013-07-10 21:32:00,68.0,65.0,-100.00,South,170,2.0,5.0,92,0.00,,,-99.99,,2013-07-11 01:32:00,
2013-07-10 21:43:00,67.0,65.0,-100.00,SSE,160,3.0,6.0,93,0.00,,,-99.99,,2013-07-11 01:43:00,
2013-07-10 21:52:00,67.0,65.0,-100.00,SW,220,3.0,6.0,94,0.00,,,-99.99,,2013-07-11 01:52:00,
2013-07-10 22:02:00,67.0,65.0,-100.00,SSW,210,2.0,4.0,95,0.00,,,-99.99,,2013-07-11 02:02:00,
2013-07-10 22:22:00,67.0,65.0,-100.00,South,170,3.0,6.0,94,0.00,,,-99.99,,2013-07-11 02:22:00,
2013-07-10 22:32:00,67.0,65.0,-100.00,SSW,195,2.0,6.0,94,0.00,,,-99.99,,2013-07-11 02:32:00,
2013-07-10 22:43:00,67.0,65.0,-100.00,SW,215,1.0,4.0,94,0.00,,,-99.99,,2013-07-11 02:43:00,
2013-07-10 23:11:00,66.0,65.0,-100.00,WSW,245,3.0,6.0,96,0.00,,,-99.99,,2013-07-11 03:11:00,
2013-07-10 23:22:00,66.0,65.0,-100.00,SW,225,4.0,6.0,96,0.00,,,-99.99,,2013-07-11 03:22:00,
2013-07-10 23:33:00,66.0,65.0,-100.00,WSW,245,2.0,4.0,96,0.00,,,-99.99,,2013-07-11 03:33:00,
2013-07-10 23:42:00,66.0,65.0,-100.00,WSW,250,2.0,5.0,97,0.00,,,-99.99,,2013-07-11 03:42:00,